Terminal Aerodrome Forecast
Issued by NWS Twin Cities, MN

Home | Current Version | Previous Version | Graphics & Text | Print | Product List | Glossary On
Versions: 1 2 3 4 5 6 7 8 9 10 11 12 13 14 15 16 17 18 19 20 21 22 23 24 25 26 27 28 29 30
842
FTUS43 KMPX 190759 AAA
TAFMSP
TAF AMD
KMSP 190759Z 1908/2012 36012KT P6SM BKN015
     FM191200 01016G23KT 6SM BR VCSH OVC015
     FM191400 02015G22KT 2SM -FZRASN BR OVC015
     FM192300 03013KT 4SM -SN OVC015
     FM200200 02011KT 6SM BR VCSH OVC015
     FM200800 36008KT 2SM -SN BR OVC009=

USA.gov is the U.S. government's official web portal to all federal, state and local government web resources and services.